createdAt,value
2022-10-31T00:02:20.393Z,23.66
2022-10-31T00:04:53.024Z,23.63
2022-10-31T00:07:27.935Z,23.60
2022-10-31T00:10:01.703Z,23.66
2022-10-31T00:12:35.295Z,23.72
2022-10-31T00:15:09.276Z,23.62
2022-10-31T00:17:52.184Z,23.60
2022-10-31T00:20:27.019Z,23.56
2022-10-31T00:23:05.048Z,23.54
2022-10-31T00:25:44.205Z,23.62
2022-10-31T00:28:24.179Z,23.53
2022-10-31T00:31:04.078Z,23.59
2022-10-31T00:33:41.028Z,23.62
2022-10-31T00:36:22.371Z,23.53
2022-10-31T00:38:57.689Z,23.57
2022-10-31T00:41:39.945Z,23.54
2022-10-31T00:44:13.525Z,23.53
2022-10-31T00:46:45.812Z,23.40
2022-10-31T00:49:24.046Z,23.49
2022-10-31T00:51:51.380Z,23.47
2022-10-31T00:54:28.541Z,23.45
2022-10-31T00:56:55.953Z,23.42
2022-10-31T00:59:24.779Z,23.36
2022-10-31T01:01:52.296Z,23.39
2022-10-31T01:04:23.372Z,23.19
2022-10-31T01:07:00.037Z,23.23
2022-10-31T01:09:28.490Z,23.17
2022-10-31T01:12:00.354Z,22.97
2022-10-31T01:14:33.524Z,22.92
2022-10-31T01:17:09.228Z,22.98
2022-10-31T01:19:42.168Z,23.02
2022-10-31T01:22:14.878Z,22.99
2022-10-31T01:24:44.691Z,23.04
2022-10-31T01:27:17.059Z,22.99
2022-10-31T01:29:51.268Z,22.95
2022-10-31T01:32:28.052Z,23.00
2022-10-31T01:34:58.320Z,23.00
2022-10-31T01:37:31.253Z,23.02
2022-10-31T01:40:03.655Z,22.96
2022-10-31T01:42:35.570Z,23.01
2022-10-31T01:45:06.644Z,23.01
2022-10-31T01:47:52.724Z,23.04
2022-10-31T01:50:51.694Z,22.98
2022-10-31T01:53:25.978Z,22.95
2022-10-31T01:55:54.635Z,23.02
2022-10-31T01:58:29.081Z,22.90
2022-10-31T02:01:06.685Z,22.94
2022-10-31T02:03:35.488Z,22.95
2022-10-31T02:06:15.380Z,23.03
2022-10-31T02:08:44.944Z,22.97
2022-10-31T02:11:16.120Z,23.03
2022-10-31T02:13:48.758Z,23.01
2022-10-31T02:16:21.052Z,22.99
2022-10-31T02:18:53.260Z,23.08
2022-10-31T02:21:52.152Z,23.03
2022-10-31T02:24:28.422Z,23.01
2022-10-31T02:27:07.248Z,23.01
2022-10-31T02:29:37.610Z,23.02
2022-10-31T02:32:47.346Z,22.97
2022-10-31T02:35:36.361Z,22.94
2022-10-31T02:38:18.501Z,22.83
2022-10-31T02:41:01.443Z,22.84
2022-10-31T02:43:55.242Z,22.79
2022-10-31T02:46:29.325Z,22.76
2022-10-31T02:49:01.768Z,22.80
2022-10-31T02:51:29.518Z,22.68
2022-10-31T02:53:56.568Z,22.69
2022-10-31T02:56:23.803Z,22.69
2022-10-31T02:59:09.050Z,22.64
2022-10-31T03:01:40.383Z,22.67
2022-10-31T03:04:52.971Z,22.57
2022-10-31T03:07:50.934Z,22.55
2022-10-31T03:10:44.808Z,22.48
2022-10-31T03:13:35.911Z,22.50
2022-10-31T03:16:20.700Z,22.37
2022-10-31T03:19:01.061Z,22.39
2022-10-31T03:21:45.498Z,22.43
2022-10-31T03:24:14.896Z,22.46
2022-10-31T03:26:48.046Z,22.44
2022-10-31T03:29:18.381Z,22.52
2022-10-31T03:31:56.214Z,22.46
2022-10-31T03:34:24.616Z,22.53
2022-10-31T03:36:58.602Z,22.51
2022-10-31T03:39:25.974Z,22.48
2022-10-31T03:41:59.244Z,22.41
2022-10-31T03:44:28.049Z,22.35
2022-10-31T03:47:01.120Z,22.45
2022-10-31T03:49:29.779Z,22.40
2022-10-31T03:52:06.672Z,22.38
2022-10-31T03:54:47.986Z,22.33
2022-10-31T03:57:30.915Z,22.38
2022-10-31T04:00:18.955Z,22.33
2022-10-31T04:02:57.201Z,22.38
2022-10-31T04:05:26.838Z,22.29
2022-10-31T04:08:01.964Z,22.27
2022-10-31T04:10:33.153Z,22.27
2022-10-31T04:13:11.720Z,22.27
2022-10-31T04:15:47.031Z,22.29
2022-10-31T04:18:15.996Z,22.13
2022-10-31T04:20:43.431Z,22.11
2022-10-31T04:23:22.275Z,22.18
2022-10-31T04:25:50.567Z,22.13
2022-10-31T04:30:50.458Z,22.12
2022-10-31T04:33:18.158Z,22.09
2022-10-31T04:35:48.576Z,22.10
2022-10-31T04:38:16.768Z,22.00
2022-10-31T04:40:46.407Z,22.12
2022-10-31T04:43:31.755Z,22.15
2022-10-31T04:46:09.495Z,22.21
2022-10-31T04:48:36.907Z,22.17
2022-10-31T04:51:06.822Z,22.14
2022-10-31T04:53:34.336Z,22.09
2022-10-31T04:56:24.596Z,22.04
2022-10-31T04:58:57.315Z,22.07
2022-10-31T05:01:38.512Z,21.96
2022-10-31T05:04:23.467Z,21.90
2022-10-31T05:06:56.227Z,21.99
2022-10-31T05:09:32.495Z,21.94
2022-10-31T05:12:16.416Z,21.85
2022-10-31T05:15:14.817Z,21.90
2022-10-31T05:18:13.638Z,21.88
2022-10-31T05:21:12.643Z,21.85
2022-10-31T05:23:58.305Z,21.92
2022-10-31T05:26:37.088Z,21.83
2022-10-31T05:29:21.276Z,21.96
2022-10-31T05:31:59.548Z,21.82
2022-10-31T05:35:09.882Z,21.80
2022-10-31T05:38:04.587Z,21.86
2022-10-31T05:40:50.368Z,21.85
2022-10-31T05:43:39.122Z,21.87
2022-10-31T05:46:27.212Z,21.67
2022-10-31T05:49:21.734Z,21.82
2022-10-31T05:52:16.031Z,21.84
2022-10-31T05:54:57.016Z,21.82
2022-10-31T05:57:33.657Z,21.67
2022-10-31T06:00:18.762Z,21.73
2022-10-31T06:03:13.068Z,21.77
2022-10-31T06:06:01.615Z,21.74
2022-10-31T06:08:40.343Z,21.71
2022-10-31T06:11:13.771Z,21.70
2022-10-31T06:13:59.822Z,21.68
2022-10-31T06:16:40.443Z,21.65
2022-10-31T06:19:42.609Z,21.71
2022-10-31T06:22:25.990Z,21.72
2022-10-31T06:24:59.852Z,21.69
2022-10-31T06:27:34.471Z,21.62
2022-10-31T06:30:14.429Z,21.67
2022-10-31T06:32:49.169Z,21.60
2022-10-31T06:35:23.595Z,21.68
2022-10-31T06:38:03.987Z,21.67
2022-10-31T06:40:40.108Z,21.61
2022-10-31T06:43:37.230Z,21.58
2022-10-31T06:46:29.120Z,21.59
2022-10-31T06:49:20.592Z,21.73
2022-10-31T06:52:05.735Z,21.78
2022-10-31T06:54:49.314Z,21.78
2022-10-31T06:57:20.169Z,21.77
2022-10-31T06:59:55.365Z,21.91
2022-10-31T07:03:05.037Z,21.91
2022-10-31T07:05:40.143Z,21.98
2022-10-31T07:08:13.592Z,22.04
2022-10-31T07:10:43.192Z,22.13
2022-10-31T07:13:18.397Z,22.09
2022-10-31T07:15:56.449Z,22.07
2022-10-31T07:18:23.986Z,22.13
2022-10-31T07:20:51.157Z,22.15
2022-10-31T07:23:19.362Z,22.27
2022-10-31T07:26:03.118Z,22.25
2022-10-31T07:28:40.427Z,22.41
2022-10-31T07:31:11.170Z,22.43
2022-10-31T07:33:39.657Z,22.52
2022-10-31T07:36:30.184Z,22.53
2022-10-31T07:39:05.620Z,22.56
2022-10-31T07:41:35.674Z,22.66
2022-10-31T07:44:03.394Z,22.56
2022-10-31T07:46:30.901Z,22.57
2022-10-31T07:49:17.664Z,22.70
2022-10-31T07:52:03.666Z,22.64
2022-10-31T07:54:49.185Z,22.69
2022-10-31T07:57:25.920Z,22.78
2022-10-31T07:59:55.452Z,22.78
2022-10-31T08:02:31.413Z,22.95
2022-10-31T08:05:35.181Z,22.79
2022-10-31T08:08:23.565Z,22.81
2022-10-31T08:10:50.967Z,22.86
2022-10-31T08:13:18.971Z,23.02
2022-10-31T08:15:53.288Z,23.17
2022-10-31T08:18:25.437Z,23.35
2022-10-31T08:20:54.908Z,23.51
2022-10-31T08:23:23.108Z,23.72
2022-10-31T08:25:50.627Z,23.51
2022-10-31T08:28:18.455Z,23.76
2022-10-31T08:30:49.682Z,23.81
2022-10-31T08:33:35.211Z,23.88
2022-10-31T08:36:23.888Z,24.06
2022-10-31T08:39:02.020Z,24.17
2022-10-31T08:41:31.556Z,24.32
2022-10-31T08:44:03.360Z,24.34
2022-10-31T08:46:30.930Z,24.53
2022-10-31T08:48:58.786Z,24.61
2022-10-31T08:54:08.154Z,24.76
2022-10-31T08:56:57.516Z,24.72
2022-10-31T08:59:47.707Z,24.66
2022-10-31T09:02:41.594Z,24.56
2022-10-31T09:05:09.446Z,24.55
2022-10-31T09:07:39.767Z,24.61
2022-10-31T09:10:07.537Z,24.64
2022-10-31T09:12:44.938Z,24.70
2022-10-31T09:15:45.160Z,24.94
2022-10-31T09:18:30.695Z,25.09
2022-10-31T09:21:06.513Z,25.30
2022-10-31T09:23:44.582Z,25.72
2022-10-31T09:26:20.099Z,26.00
2022-10-31T09:29:10.883Z,26.33
2022-10-31T09:31:44.793Z,26.67
2022-10-31T09:34:51.329Z,27.00
2022-10-31T09:37:25.222Z,27.31
2022-10-31T09:39:55.584Z,27.45
2022-10-31T09:43:01.578Z,27.18
2022-10-31T09:45:50.349Z,27.30
2022-10-31T09:49:09.645Z,27.40
2022-10-31T09:52:36.983Z,27.66
2022-10-31T09:55:23.921Z,27.68
2022-10-31T09:58:05.930Z,27.70
2022-10-31T10:03:38.489Z,27.50
2022-10-31T10:06:34.417Z,27.84
2022-10-31T10:09:43.085Z,27.98
2022-10-31T10:13:01.156Z,27.86
2022-10-31T10:16:22.846Z,27.84
2022-10-31T10:19:14.709Z,28.16
2022-10-31T10:22:10.462Z,28.10
2022-10-31T10:24:58.188Z,28.74
2022-10-31T10:28:13.606Z,29.07
2022-10-31T10:30:58.588Z,29.28
2022-10-31T10:34:00.938Z,29.45
2022-10-31T10:36:41.401Z,29.75
2022-10-31T10:39:33.742Z,29.97
2022-10-31T10:42:36.488Z,30.05
2022-10-31T10:45:46.678Z,30.26
2022-10-31T10:48:42.484Z,30.59
2022-10-31T10:54:41.318Z,31.32
2022-10-31T10:57:53.941Z,31.58
2022-10-31T11:00:29.081Z,31.98
2022-10-31T11:02:57.421Z,32.04
2022-10-31T11:05:41.296Z,32.24
2022-10-31T11:08:10.669Z,32.67
2022-10-31T11:10:40.799Z,32.88
2022-10-31T11:13:23.798Z,32.97
2022-10-31T11:16:02.532Z,32.93
2022-10-31T11:18:43.250Z,32.98
2022-10-31T11:21:33.990Z,31.79
2022-10-31T11:24:12.833Z,32.39
2022-10-31T11:26:44.490Z,32.06
2022-10-31T11:32:55.459Z,32.48
2022-10-31T11:35:40.519Z,31.86
2022-10-31T11:38:26.385Z,32.06
2022-10-31T11:41:28.127Z,32.50
2022-10-31T11:44:05.384Z,32.72
2022-10-31T11:46:55.209Z,33.07
2022-10-31T11:50:01.574Z,33.09
2022-10-31T11:52:37.527Z,32.31
2022-10-31T11:55:46.729Z,32.13
2022-10-31T11:58:28.743Z,31.89
2022-10-31T12:00:59.161Z,32.18
2022-10-31T12:04:03.626Z,31.19
2022-10-31T12:06:52.745Z,31.24
2022-10-31T12:09:33.665Z,30.84
2022-10-31T12:12:15.196Z,30.15
2022-10-31T12:15:20.782Z,30.20
2022-10-31T12:18:03.797Z,30.49
2022-10-31T12:20:59.421Z,30.65
2022-10-31T12:24:04.679Z,30.68
2022-10-31T12:27:02.853Z,31.56
2022-10-31T12:29:48.219Z,32.26
2022-10-31T12:32:43.905Z,32.96
2022-10-31T12:35:57.334Z,33.00
2022-10-31T12:39:10.140Z,33.48
2022-10-31T12:42:01.731Z,33.49
2022-10-31T12:45:17.792Z,34.00
2022-10-31T12:48:10.481Z,33.58
2022-10-31T12:51:18.972Z,33.33
2022-10-31T12:54:17.994Z,33.53
2022-10-31T12:57:10.467Z,32.75
2022-10-31T12:59:54.141Z,32.58
2022-10-31T13:02:55.048Z,32.30
2022-10-31T13:05:37.752Z,31.88
2022-10-31T13:08:11.821Z,31.20
2022-10-31T13:13:47.664Z,30.98
2022-10-31T13:19:52.281Z,30.27
2022-10-31T13:22:31.264Z,30.86
2022-10-31T13:25:32.078Z,31.13
2022-10-31T13:28:46.024Z,31.37
2022-10-31T13:31:16.383Z,30.76
2022-10-31T13:33:52.375Z,30.95
2022-10-31T13:36:36.153Z,30.36
2022-10-31T13:39:27.655Z,30.26
2022-10-31T13:42:37.917Z,29.49
2022-10-31T13:45:34.235Z,29.47
2022-10-31T13:48:44.452Z,29.74
2022-10-31T13:51:19.078Z,28.84
2022-10-31T13:54:04.161Z,28.81
2022-10-31T13:56:41.880Z,28.78
2022-10-31T13:59:40.898Z,29.28
2022-10-31T14:02:33.738Z,28.92
2022-10-31T14:05:44.959Z,28.51
2022-10-31T14:08:34.887Z,28.64
2022-10-31T14:11:37.304Z,28.79
2022-10-31T14:14:15.294Z,28.61
2022-10-31T14:17:03.490Z,28.21
2022-10-31T14:19:34.480Z,28.45
2022-10-31T14:22:20.872Z,28.47
2022-10-31T14:25:03.343Z,28.32
2022-10-31T14:27:38.329Z,28.02
2022-10-31T14:30:35.041Z,27.81
2022-10-31T14:33:25.886Z,27.99
2022-10-31T14:36:11.402Z,27.58
2022-10-31T14:39:11.978Z,28.18
2022-10-31T14:42:19.471Z,28.21
2022-10-31T14:45:15.460Z,28.36
2022-10-31T14:48:27.464Z,28.58
2022-10-31T14:50:59.147Z,28.44
2022-10-31T14:53:30.602Z,28.45
2022-10-31T14:56:07.167Z,28.59
2022-10-31T14:58:51.388Z,28.49
2022-10-31T15:01:53.734Z,28.31
2022-10-31T15:04:34.007Z,28.39
2022-10-31T15:07:24.841Z,28.16
2022-10-31T15:10:08.175Z,28.04
2022-10-31T15:12:44.840Z,28.10
2022-10-31T15:15:27.654Z,27.72
2022-10-31T15:18:08.347Z,27.68
2022-10-31T15:20:52.004Z,27.63
2022-10-31T15:23:56.795Z,27.46
2022-10-31T15:26:36.616Z,27.37
2022-10-31T15:29:07.131Z,27.47
2022-10-31T15:31:34.757Z,27.28
2022-10-31T15:34:21.623Z,27.40
2022-10-31T15:36:52.497Z,27.49
2022-10-31T15:39:23.132Z,27.35
2022-10-31T15:42:03.508Z,27.28
2022-10-31T15:44:40.147Z,27.33
2022-10-31T15:47:28.945Z,27.08
2022-10-31T15:50:16.930Z,27.02
2022-10-31T15:52:55.864Z,27.16
2022-10-31T15:55:34.711Z,27.19
2022-10-31T15:58:21.353Z,27.01
2022-10-31T16:01:29.749Z,27.12
2022-10-31T16:04:36.902Z,27.09
2022-10-31T16:07:26.925Z,27.03
2022-10-31T16:10:05.777Z,26.80
2022-10-31T16:12:47.460Z,26.92
2022-10-31T16:15:36.679Z,26.83
2022-10-31T16:18:18.773Z,26.67
2022-10-31T16:21:05.949Z,26.71
2022-10-31T16:24:02.729Z,26.77
2022-10-31T16:26:40.563Z,26.79
2022-10-31T16:29:44.193Z,26.81
2022-10-31T16:32:56.859Z,26.75
2022-10-31T16:35:40.749Z,26.34
2022-10-31T16:38:38.978Z,26.35
2022-10-31T16:41:41.187Z,26.45
2022-10-31T16:44:55.673Z,26.19
2022-10-31T16:50:52.673Z,26.25
2022-10-31T16:57:05.512Z,26.27
2022-10-31T16:59:53.587Z,26.29
2022-10-31T17:02:41.449Z,26.32
2022-10-31T17:05:45.076Z,26.26
2022-10-31T17:08:38.099Z,26.33
2022-10-31T17:11:17.828Z,26.34
2022-10-31T17:14:32.773Z,26.30
2022-10-31T17:17:20.849Z,26.37
2022-10-31T17:20:01.546Z,26.43
2022-10-31T17:22:40.977Z,26.45
2022-10-31T17:25:51.135Z,26.27
2022-10-31T17:28:46.227Z,26.29
2022-10-31T17:31:59.451Z,26.18
2022-10-31T17:34:39.092Z,26.23
2022-10-31T17:37:21.090Z,26.16
2022-10-31T17:40:15.807Z,26.09
2022-10-31T17:46:18.611Z,26.08
2022-10-31T17:49:01.628Z,25.98
2022-10-31T17:51:40.384Z,26.06
2022-10-31T17:54:13.759Z,25.89
2022-10-31T17:56:48.533Z,25.95
2022-10-31T17:59:30.778Z,25.90
2022-10-31T18:02:34.496Z,25.91
2022-10-31T18:05:11.176Z,26.06
2022-10-31T18:07:49.419Z,26.13
2022-10-31T18:10:43.218Z,26.13
2022-10-31T18:13:25.989Z,26.04
2022-10-31T18:15:58.282Z,26.09
2022-10-31T18:18:35.271Z,25.94
2022-10-31T18:21:13.094Z,26.09
2022-10-31T18:24:04.178Z,26.06
2022-10-31T18:27:05.164Z,25.94
2022-10-31T18:29:41.428Z,25.99
2022-10-31T18:32:17.200Z,26.01
2022-10-31T18:34:48.559Z,25.87
2022-10-31T18:37:32.739Z,26.03
2022-10-31T18:40:06.302Z,25.99
2022-10-31T18:42:45.629Z,26.03
2022-10-31T18:45:32.460Z,25.89
2022-10-31T18:48:14.663Z,26.00
2022-10-31T18:50:53.890Z,25.82
2022-10-31T18:53:40.678Z,26.01
2022-10-31T18:56:25.115Z,25.88
2022-10-31T18:59:17.671Z,25.85
2022-10-31T19:01:49.757Z,26.02
2022-10-31T19:04:38.647Z,26.09
2022-10-31T19:07:28.252Z,26.06
2022-10-31T19:10:30.764Z,25.99
2022-10-31T19:13:16.395Z,26.06
2022-10-31T19:15:55.827Z,26.03
2022-10-31T19:18:32.067Z,26.01
2022-10-31T19:21:08.154Z,26.06
2022-10-31T19:26:35.256Z,26.01
2022-10-31T19:29:13.379Z,26.04
2022-10-31T19:31:52.628Z,25.99
2022-10-31T19:34:30.928Z,26.05
2022-10-31T19:37:03.317Z,25.97
2022-10-31T19:39:34.447Z,25.87
2022-10-31T19:42:13.363Z,26.03
2022-10-31T19:44:43.831Z,26.08
2022-10-31T19:47:16.790Z,26.10
2022-10-31T19:49:50.547Z,26.10
2022-10-31T19:52:27.726Z,25.97
2022-10-31T19:54:56.308Z,26.10
2022-10-31T20:00:49.866Z,26.08
2022-10-31T20:03:32.222Z,25.92
2022-10-31T20:06:09.199Z,25.86
2022-10-31T20:08:39.647Z,25.97
2022-10-31T20:11:16.513Z,26.03
2022-10-31T20:13:56.719Z,25.98
2022-10-31T20:16:35.782Z,25.99
2022-10-31T20:19:15.439Z,26.13
2022-10-31T20:21:52.289Z,26.05
2022-10-31T20:24:25.663Z,26.04
2022-10-31T20:27:07.410Z,25.97
2022-10-31T20:29:46.946Z,25.95
2022-10-31T20:35:15.605Z,25.90
2022-10-31T20:37:48.881Z,25.79
2022-10-31T20:40:27.096Z,25.87
2022-10-31T20:43:09.700Z,25.99
2022-10-31T20:46:00.046Z,26.09
2022-10-31T20:48:31.318Z,25.92
2022-10-31T20:51:09.371Z,25.87
2022-10-31T20:53:53.443Z,25.76
2022-10-31T20:59:28.039Z,25.83
2022-10-31T21:01:58.686Z,25.72
2022-10-31T21:05:17.898Z,25.78
2022-10-31T21:07:52.150Z,25.42
2022-10-31T21:10:26.928Z,25.67
2022-10-31T21:12:57.455Z,25.45
2022-10-31T21:15:28.088Z,25.61
2022-10-31T21:17:58.253Z,25.72
2022-10-31T21:20:29.008Z,25.54
2022-10-31T21:23:02.033Z,25.70
2022-10-31T21:25:29.791Z,25.67
2022-10-31T21:28:00.223Z,25.72
2022-10-31T21:30:36.424Z,25.65
2022-10-31T21:33:13.975Z,25.54
2022-10-31T21:35:55.523Z,25.46
2022-10-31T21:38:29.513Z,25.22
2022-10-31T21:41:24.362Z,25.32
2022-10-31T21:44:02.481Z,25.37
2022-10-31T21:46:52.169Z,25.50
2022-10-31T21:49:35.422Z,25.61
2022-10-31T21:52:19.719Z,25.49
2022-10-31T21:55:09.431Z,25.23
2022-10-31T21:58:00.109Z,25.20
2022-10-31T22:00:51.546Z,25.40
2022-10-31T22:07:13.279Z,25.18
2022-10-31T22:09:58.606Z,25.44
2022-10-31T22:13:02.970Z,25.37
2022-10-31T22:15:55.835Z,25.59
2022-10-31T22:18:32.625Z,25.49
2022-10-31T22:21:33.387Z,25.61
2022-10-31T22:24:50.263Z,25.54
2022-10-31T22:27:38.718Z,25.62
2022-10-31T22:30:20.728Z,25.66
2022-10-31T22:33:15.512Z,25.67
2022-10-31T22:40:01.011Z,25.73
2022-10-31T22:42:41.159Z,25.74
2022-10-31T22:45:20.009Z,25.77
2022-10-31T22:48:08.005Z,25.72
2022-10-31T22:50:58.097Z,25.76
2022-10-31T22:53:31.788Z,25.75
2022-10-31T22:56:16.510Z,25.51
2022-10-31T22:58:46.467Z,25.39
2022-10-31T23:01:30.457Z,25.50
2022-10-31T23:04:08.941Z,25.63
2022-10-31T23:06:41.468Z,25.44
2022-10-31T23:09:19.605Z,25.59
2022-10-31T23:11:51.711Z,25.51
2022-10-31T23:14:21.796Z,25.47
2022-10-31T23:17:03.510Z,25.60
2022-10-31T23:19:35.105Z,25.42
2022-10-31T23:22:04.846Z,25.47
2022-10-31T23:24:43.092Z,25.36
2022-10-31T23:27:27.563Z,25.49
2022-10-31T23:29:59.638Z,25.44
2022-10-31T23:32:33.052Z,25.53
2022-10-31T23:35:02.997Z,25.28
2022-10-31T23:37:33.454Z,25.24
2022-10-31T23:40:08.084Z,25.33
2022-10-31T23:42:38.771Z,25.45
2022-10-31T23:45:06.614Z,25.43
2022-10-31T23:47:38.336Z,25.35
2022-10-31T23:50:11.809Z,25.48
2022-10-31T23:52:42.879Z,25.33
2022-10-31T23:55:13.937Z,25.27
2022-10-31T23:57:49.666Z,25.23
